createdAt,value
2022-07-25T00:01:44.029Z,16.70
2022-07-25T00:04:12.246Z,16.70
2022-07-25T00:06:39.792Z,16.70
2022-07-25T00:09:07.089Z,16.70
2022-07-25T00:11:34.018Z,16.70
2022-07-25T00:14:00.662Z,16.60
2022-07-25T00:16:27.450Z,16.60
2022-07-25T00:18:54.096Z,16.60
2022-07-25T00:21:20.925Z,16.60
2022-07-25T00:23:47.633Z,16.60
2022-07-25T00:26:14.561Z,16.60
2022-07-25T00:28:41.428Z,16.60
2022-07-25T00:31:08.124Z,16.60
2022-07-25T00:33:34.858Z,16.60
2022-07-25T00:36:01.582Z,16.60
2022-07-25T00:38:28.272Z,16.70
2022-07-25T00:40:55.699Z,16.70
2022-07-25T00:43:22.770Z,16.70
2022-07-25T00:45:49.496Z,16.70
2022-07-25T00:48:16.284Z,16.70
2022-07-25T00:50:43.399Z,16.70
2022-07-25T00:53:10.134Z,16.70
2022-07-25T00:55:37.405Z,16.80
2022-07-25T00:58:04.679Z,16.80
2022-07-25T01:00:31.544Z,16.90
2022-07-25T01:02:58.553Z,16.90
2022-07-25T01:05:25.490Z,16.90
2022-07-25T01:07:52.517Z,16.90
2022-07-25T01:10:19.287Z,16.90
2022-07-25T01:12:51.767Z,16.90
2022-07-25T01:15:20.001Z,16.90
2022-07-25T01:17:46.970Z,16.90
2022-07-25T01:20:18.545Z,16.80
2022-07-25T01:22:46.205Z,16.80
2022-07-25T01:25:14.189Z,16.80
2022-07-25T01:27:41.583Z,16.80
2022-07-25T01:30:11.233Z,16.80
2022-07-25T01:32:38.042Z,16.70
2022-07-25T01:35:06.074Z,16.70
2022-07-25T01:37:33.034Z,16.70
2022-07-25T01:39:59.921Z,16.70
2022-07-25T01:42:26.761Z,16.70
2022-07-25T01:44:53.556Z,16.70
2022-07-25T01:47:20.274Z,16.70
2022-07-25T01:49:47.015Z,16.70
2022-07-25T01:52:14.361Z,16.70
2022-07-25T01:54:41.486Z,16.70
2022-07-25T01:57:10.532Z,16.70
2022-07-25T01:59:40.587Z,16.60
2022-07-25T02:02:08.959Z,16.60
2022-07-25T02:04:36.875Z,16.60
2022-07-25T02:07:04.437Z,16.70
2022-07-25T02:09:33.146Z,16.70
2022-07-25T02:11:59.818Z,16.70
2022-07-25T02:14:26.474Z,16.60
2022-07-25T02:16:54.115Z,16.60
2022-07-25T02:19:20.897Z,16.60
2022-07-25T02:21:47.551Z,16.60
2022-07-25T02:24:14.458Z,16.60
2022-07-25T02:26:41.181Z,16.60
2022-07-25T02:29:07.825Z,16.50
2022-07-25T02:31:34.588Z,16.50
2022-07-25T02:34:01.455Z,16.40
2022-07-25T02:36:28.197Z,16.40
2022-07-25T02:38:54.849Z,16.40
2022-07-25T02:41:21.574Z,16.40
2022-07-25T02:43:48.217Z,16.40
2022-07-25T02:46:15.031Z,16.40
2022-07-25T02:48:41.994Z,16.40
2022-07-25T02:51:09.052Z,16.40
2022-07-25T02:53:56.138Z,16.50
2022-07-25T02:56:22.386Z,16.50
2022-07-25T02:58:50.265Z,16.50
2022-07-25T03:01:17.068Z,16.40
2022-07-25T03:03:43.995Z,16.40
2022-07-25T03:06:10.724Z,16.40
2022-07-25T03:08:37.503Z,16.40
2022-07-25T03:11:04.671Z,16.40
2022-07-25T03:13:33.068Z,16.30
2022-07-25T03:16:00.056Z,16.20
2022-07-25T03:18:26.707Z,16.20
2022-07-25T03:20:53.420Z,16.20
2022-07-25T03:23:20.078Z,16.20
2022-07-25T03:25:46.754Z,16.20
2022-07-25T03:28:13.461Z,16.30
2022-07-25T03:30:40.490Z,16.30
2022-07-25T03:33:07.149Z,16.30
2022-07-25T03:35:33.882Z,16.30
2022-07-25T03:38:02.010Z,16.40
2022-07-25T03:40:28.738Z,16.40
2022-07-25T03:42:55.473Z,16.50
2022-07-25T03:45:22.242Z,16.50
2022-07-25T03:47:48.877Z,16.50
2022-07-25T03:50:15.853Z,16.50
2022-07-25T03:52:42.640Z,16.60
2022-07-25T03:55:11.003Z,16.60
2022-07-25T03:57:38.571Z,16.60
2022-07-25T04:00:10.252Z,16.60
2022-07-25T04:02:38.115Z,16.70
2022-07-25T04:05:07.197Z,16.70
2022-07-25T04:07:34.445Z,16.70
2022-07-25T04:10:01.846Z,16.70
2022-07-25T04:12:28.734Z,16.80
2022-07-25T04:14:55.416Z,16.80
2022-07-25T04:17:22.164Z,16.80
2022-07-25T04:19:51.061Z,16.80
2022-07-25T04:22:17.705Z,16.80
2022-07-25T04:24:44.436Z,16.90
2022-07-25T04:27:11.046Z,16.90
2022-07-25T04:29:37.858Z,17.00
2022-07-25T04:32:05.175Z,17.00
2022-07-25T04:34:32.056Z,17.10
2022-07-25T04:36:58.675Z,17.10
2022-07-25T04:39:25.359Z,17.20
2022-07-25T04:41:52.115Z,17.30
2022-07-25T04:44:18.834Z,17.40
2022-07-25T04:46:45.460Z,17.50
2022-07-25T04:49:12.237Z,17.60
2022-07-25T04:51:39.063Z,17.80
2022-07-25T04:54:06.324Z,17.90
2022-07-25T04:56:33.223Z,17.90
2022-07-25T04:59:06.215Z,18.10
2022-07-25T05:01:33.891Z,18.20
2022-07-25T05:04:00.653Z,18.30
2022-07-25T05:06:27.324Z,18.40
2022-07-25T05:08:54.094Z,18.40
2022-07-25T05:11:20.742Z,18.50
2022-07-25T05:13:47.630Z,18.60
2022-07-25T05:16:14.495Z,18.70
2022-07-25T05:18:41.262Z,18.80
2022-07-25T05:21:13.316Z,18.90
2022-07-25T05:23:40.882Z,19.00
2022-07-25T05:26:07.634Z,19.10
2022-07-25T05:28:34.245Z,19.20
2022-07-25T05:31:00.966Z,19.30
2022-07-25T05:33:27.856Z,19.40
2022-07-25T05:35:54.718Z,19.50
2022-07-25T05:38:21.464Z,19.70
2022-07-25T05:40:49.012Z,19.70
2022-07-25T05:43:15.673Z,19.80
2022-07-25T05:45:42.474Z,20.00
2022-07-25T05:48:09.170Z,20.20
2022-07-25T05:50:38.950Z,20.30
2022-07-25T05:53:05.575Z,20.50
2022-07-25T05:55:32.639Z,20.70
2022-07-25T05:57:59.643Z,20.80
2022-07-25T06:00:29.403Z,21.00
2022-07-25T06:03:00.579Z,21.10
2022-07-25T06:05:27.460Z,21.30
2022-07-25T06:07:54.186Z,21.50
2022-07-25T06:10:21.350Z,21.70
2022-07-25T06:12:48.126Z,21.80
2022-07-25T06:15:22.614Z,22.00
2022-07-25T06:17:53.655Z,22.30
2022-07-25T06:20:20.504Z,22.50
2022-07-25T06:22:47.201Z,22.70
2022-07-25T06:25:14.993Z,22.90
2022-07-25T06:27:41.797Z,23.10
2022-07-25T06:30:19.193Z,23.40
2022-07-25T06:32:48.230Z,23.70
2022-07-25T06:35:15.302Z,24.00
2022-07-25T06:37:41.974Z,24.20
2022-07-25T06:40:09.240Z,24.40
2022-07-25T06:42:47.234Z,24.70
2022-07-25T06:45:15.204Z,24.90
2022-07-25T06:47:43.239Z,25.20
2022-07-25T06:50:13.047Z,25.50
2022-07-25T06:52:40.913Z,25.90
2022-07-25T06:55:09.485Z,26.20
2022-07-25T06:57:37.039Z,26.50
2022-07-25T07:00:08.058Z,26.70
2022-07-25T07:02:34.829Z,27.00
2022-07-25T07:05:01.835Z,27.20
2022-07-25T07:07:28.460Z,27.50
2022-07-25T07:09:55.144Z,27.80
2022-07-25T07:12:22.085Z,28.10
2022-07-25T07:14:48.866Z,28.30
2022-07-25T07:17:15.504Z,28.60
2022-07-25T07:19:44.484Z,28.80
2022-07-25T07:22:11.421Z,29.00
2022-07-25T07:24:44.296Z,29.30
2022-07-25T07:27:14.797Z,29.70
2022-07-25T07:29:42.020Z,30.00
2022-07-25T07:32:08.847Z,30.30
2022-07-25T07:34:35.521Z,30.60
2022-07-25T07:37:03.499Z,30.80
2022-07-25T07:39:30.182Z,30.90
2022-07-25T07:42:17.940Z,31.10
2022-07-25T07:45:04.320Z,31.30
2022-07-25T07:47:52.813Z,31.30
2022-07-25T07:50:28.109Z,31.40
2022-07-25T07:52:59.318Z,31.50
2022-07-25T07:55:44.925Z,31.80
2022-07-25T07:58:15.616Z,31.90
2022-07-25T08:00:43.776Z,32.10
2022-07-25T08:03:10.628Z,32.30
2022-07-25T08:05:40.810Z,32.60
2022-07-25T08:08:09.542Z,32.90
2022-07-25T08:10:38.777Z,33.10
2022-07-25T08:13:16.917Z,33.40
2022-07-25T08:15:46.417Z,33.60
2022-07-25T08:18:17.067Z,33.80
2022-07-25T08:20:48.575Z,33.90
2022-07-25T08:23:16.007Z,34.10
2022-07-25T08:25:43.470Z,34.40
2022-07-25T08:28:10.192Z,34.20
2022-07-25T08:30:38.717Z,34.20
2022-07-25T08:33:09.653Z,34.40
2022-07-25T08:35:36.654Z,34.70
2022-07-25T08:38:04.869Z,34.90
2022-07-25T08:40:32.573Z,35.00
2022-07-25T08:43:00.430Z,35.20
2022-07-25T08:45:28.772Z,35.20
2022-07-25T08:51:44.116Z,35.70
2022-07-25T08:54:11.236Z,35.90
2022-07-25T08:56:37.960Z,35.90
2022-07-25T08:59:10.202Z,36.20
2022-07-25T09:01:40.069Z,36.40
2022-07-25T09:04:10.167Z,36.60
2022-07-25T09:06:38.020Z,36.60
2022-07-25T09:09:05.188Z,36.60
2022-07-25T09:11:35.548Z,36.60
2022-07-25T09:14:08.847Z,36.60
2022-07-25T09:16:41.375Z,36.60
2022-07-25T09:19:12.595Z,36.30
2022-07-25T09:21:41.018Z,36.30
2022-07-25T09:24:16.743Z,36.00
2022-07-25T09:26:52.304Z,36.00
2022-07-25T09:29:25.693Z,35.90
2022-07-25T09:31:53.247Z,35.40
2022-07-25T09:34:31.728Z,35.30
2022-07-25T09:36:58.819Z,35.30
2022-07-25T09:39:50.481Z,35.70
2022-07-25T09:42:29.798Z,35.60
2022-07-25T09:45:03.185Z,35.90
2022-07-25T09:47:30.723Z,36.00
2022-07-25T09:49:57.703Z,35.80
2022-07-25T09:52:24.373Z,36.00
2022-07-25T09:54:51.210Z,35.90
2022-07-25T09:57:18.143Z,35.90
2022-07-25T09:59:44.788Z,36.30
2022-07-25T10:02:37.903Z,36.60
2022-07-25T10:05:51.547Z,36.50
2022-07-25T10:08:19.885Z,36.40
2022-07-25T10:10:46.781Z,36.40
2022-07-25T10:13:28.547Z,36.50
2022-07-25T10:15:55.628Z,36.80
2022-07-25T10:18:25.140Z,37.10
2022-07-25T10:20:54.910Z,36.80
2022-07-25T10:23:24.576Z,36.70
2022-07-25T10:26:13.314Z,36.60
2022-07-25T10:28:47.236Z,36.80
2022-07-25T10:31:21.788Z,36.90
2022-07-25T10:33:52.008Z,37.00
2022-07-25T10:36:20.589Z,37.40
2022-07-25T10:38:47.788Z,37.90
2022-07-25T10:41:17.025Z,38.10
2022-07-25T10:43:48.724Z,37.90
2022-07-25T10:46:19.543Z,37.80
2022-07-25T10:49:01.122Z,38.10
2022-07-25T10:51:31.184Z,38.20
2022-07-25T10:53:58.393Z,38.20
2022-07-25T10:56:29.162Z,38.50
2022-07-25T10:59:01.372Z,38.60
2022-07-25T11:01:33.403Z,38.50
2022-07-25T11:04:02.707Z,38.40
2022-07-25T11:06:35.369Z,37.90
2022-07-25T11:09:04.736Z,37.50
2022-07-25T11:11:40.542Z,38.00
2022-07-25T11:14:16.204Z,38.60
2022-07-25T11:16:43.989Z,39.30
2022-07-25T11:19:28.334Z,39.50
2022-07-25T11:22:00.638Z,38.80
2022-07-25T11:24:45.370Z,38.10
2022-07-25T11:27:33.382Z,37.80
2022-07-25T11:30:12.320Z,38.20
2022-07-25T11:32:43.293Z,38.60
2022-07-25T11:35:11.646Z,39.10
2022-07-25T11:37:40.633Z,39.40
2022-07-25T11:40:08.202Z,39.20
2022-07-25T11:42:44.240Z,39.20
2022-07-25T11:45:34.100Z,39.00
2022-07-25T11:48:08.056Z,38.90
2022-07-25T11:50:40.307Z,38.60
2022-07-25T11:53:11.217Z,38.80
2022-07-25T11:55:45.401Z,38.50
2022-07-25T11:58:13.643Z,38.30
2022-07-25T12:00:47.301Z,38.20
2022-07-25T12:03:19.857Z,37.40
2022-07-25T12:05:47.561Z,36.90
2022-07-25T12:08:16.335Z,37.20
2022-07-25T12:10:44.207Z,37.20
2022-07-25T12:13:25.108Z,37.50
2022-07-25T12:15:52.134Z,37.00
2022-07-25T12:18:19.039Z,36.80
2022-07-25T12:20:45.867Z,37.10
2022-07-25T12:23:13.566Z,37.50
2022-07-25T12:25:45.556Z,37.50
2022-07-25T12:28:13.130Z,37.90
2022-07-25T12:30:41.922Z,38.00
2022-07-25T12:33:08.940Z,38.00
2022-07-25T12:35:38.961Z,38.20
2022-07-25T12:38:05.860Z,38.40
2022-07-25T12:40:32.709Z,38.50
2022-07-25T12:42:59.533Z,38.80
2022-07-25T12:45:27.146Z,38.50
2022-07-25T12:47:54.253Z,39.00
2022-07-25T12:50:21.005Z,39.20
2022-07-25T12:52:48.137Z,39.20
2022-07-25T12:55:17.704Z,39.20
2022-07-25T12:57:45.075Z,39.60
2022-07-25T13:00:14.714Z,39.80
2022-07-25T13:02:41.594Z,40.10
2022-07-25T13:05:08.797Z,40.50
2022-07-25T13:07:35.483Z,40.20
2022-07-25T13:10:03.726Z,39.50
2022-07-25T13:12:30.929Z,39.60
2022-07-25T13:14:58.833Z,39.60
2022-07-25T13:17:27.776Z,39.60
2022-07-25T13:19:56.268Z,39.70
2022-07-25T13:22:23.722Z,40.10
2022-07-25T13:24:50.817Z,40.20
2022-07-25T13:27:22.063Z,40.00
2022-07-25T13:29:54.132Z,39.50
2022-07-25T13:32:22.294Z,39.00
2022-07-25T13:34:49.123Z,38.60
2022-07-25T13:37:15.778Z,38.40
2022-07-25T13:39:42.697Z,38.40
2022-07-25T13:42:09.972Z,38.50
2022-07-25T13:44:36.634Z,38.50
2022-07-25T13:47:03.445Z,38.10
2022-07-25T13:49:31.542Z,37.90
2022-07-25T13:51:58.206Z,37.60
2022-07-25T13:54:24.873Z,37.30
2022-07-25T13:56:51.602Z,37.10
2022-07-25T13:59:21.369Z,37.30
2022-07-25T14:01:49.570Z,37.40
2022-07-25T14:04:16.841Z,37.40
2022-07-25T14:06:46.518Z,37.40
2022-07-25T14:09:13.167Z,37.50
2022-07-25T14:11:39.916Z,37.70
2022-07-25T14:14:06.694Z,37.60
2022-07-25T14:16:34.393Z,37.30
2022-07-25T14:19:02.156Z,37.20
2022-07-25T14:21:29.194Z,37.40
2022-07-25T14:23:56.073Z,37.50
2022-07-25T14:26:22.916Z,37.50
2022-07-25T14:28:49.857Z,37.20
2022-07-25T14:31:16.638Z,37.10
2022-07-25T14:33:43.366Z,37.10
2022-07-25T14:36:10.626Z,36.90
2022-07-25T14:38:37.303Z,36.80
2022-07-25T14:41:09.211Z,36.90
2022-07-25T14:43:39.821Z,37.10
2022-07-25T14:46:08.030Z,37.40
2022-07-25T14:48:37.170Z,37.80
2022-07-25T14:51:04.203Z,37.90
2022-07-25T14:53:30.966Z,38.20
2022-07-25T14:55:57.682Z,38.40
2022-07-25T14:58:24.397Z,38.50
2022-07-25T15:00:51.107Z,38.30
2022-07-25T15:03:17.853Z,38.00
2022-07-25T15:05:45.880Z,38.10
2022-07-25T15:08:14.181Z,38.10
2022-07-25T15:10:41.205Z,37.90
2022-07-25T15:13:30.085Z,37.80
2022-07-25T15:15:56.035Z,37.60
2022-07-25T15:18:23.035Z,37.40
2022-07-25T15:20:51.681Z,37.30
2022-07-25T15:23:18.411Z,36.90
2022-07-25T15:26:03.601Z,36.60
2022-07-25T15:28:35.261Z,36.40
2022-07-25T15:31:02.651Z,36.20
2022-07-25T15:33:29.516Z,36.20
2022-07-25T15:35:56.417Z,36.30
2022-07-25T15:38:23.505Z,36.40
2022-07-25T15:40:50.183Z,36.50
2022-07-25T15:43:17.081Z,36.40
2022-07-25T15:45:45.903Z,36.30
2022-07-25T15:48:14.984Z,36.20
2022-07-25T15:50:43.636Z,36.00
2022-07-25T15:53:11.282Z,35.80
2022-07-25T15:55:39.214Z,35.60
2022-07-25T15:58:06.489Z,35.50
2022-07-25T16:00:33.806Z,35.30
2022-07-25T16:03:00.543Z,35.20
2022-07-25T16:05:27.309Z,35.00
2022-07-25T16:07:54.011Z,35.00
2022-07-25T16:10:20.685Z,34.80
2022-07-25T16:12:47.411Z,34.80
2022-07-25T16:15:14.198Z,34.70
2022-07-25T16:17:40.896Z,34.70
2022-07-25T16:20:09.882Z,34.80
2022-07-25T16:22:36.630Z,35.00
2022-07-25T16:25:04.240Z,35.20
2022-07-25T16:27:30.921Z,35.50
2022-07-25T16:29:57.685Z,35.60
2022-07-25T16:32:24.578Z,35.60
2022-07-25T16:34:51.393Z,35.50
2022-07-25T16:37:18.126Z,35.30
2022-07-25T16:39:44.852Z,35.10
2022-07-25T16:42:11.551Z,35.00
2022-07-25T16:44:38.278Z,34.90
2022-07-25T16:47:05.058Z,34.70
2022-07-25T16:49:31.781Z,34.50
2022-07-25T16:51:58.409Z,34.40
2022-07-25T16:54:25.481Z,34.30
2022-07-25T16:56:54.879Z,34.20
2022-07-25T16:59:22.566Z,34.00
2022-07-25T17:01:49.579Z,34.00
2022-07-25T17:04:16.503Z,33.90
2022-07-25T17:06:43.158Z,33.70
2022-07-25T17:09:10.359Z,33.60
2022-07-25T17:11:37.230Z,33.60
2022-07-25T17:14:04.471Z,33.50
2022-07-25T17:16:32.169Z,33.40
2022-07-25T17:18:58.969Z,33.30
2022-07-25T17:21:25.670Z,33.30
2022-07-25T17:23:53.160Z,33.10
2022-07-25T17:26:20.898Z,33.00
2022-07-25T17:28:47.900Z,32.90
2022-07-25T17:31:14.981Z,32.80
2022-07-25T17:33:41.953Z,32.70
2022-07-25T17:36:09.312Z,32.60
2022-07-25T17:38:37.131Z,32.60
2022-07-25T17:41:04.466Z,32.50
2022-07-25T17:43:31.159Z,32.30
2022-07-25T17:45:57.852Z,32.30
2022-07-25T17:48:24.583Z,32.20
2022-07-25T17:50:52.310Z,31.80
2022-07-25T17:53:19.112Z,31.50
2022-07-25T17:55:46.537Z,31.10
2022-07-25T17:58:13.591Z,30.30
2022-07-25T18:00:40.459Z,29.10
2022-07-25T18:03:07.292Z,28.20
2022-07-25T18:05:34.108Z,27.70
2022-07-25T18:08:02.692Z,27.30
2022-07-25T18:10:29.708Z,26.90
2022-07-25T18:12:56.329Z,26.60
2022-07-25T18:15:23.014Z,26.30
2022-07-25T18:17:49.718Z,26.20
2022-07-25T18:20:17.847Z,26.00
2022-07-25T18:22:45.347Z,25.90
2022-07-25T18:25:13.305Z,25.80
2022-07-25T18:27:44.699Z,25.70
2022-07-25T18:30:12.023Z,25.60
2022-07-25T18:32:38.844Z,25.50
2022-07-25T18:35:06.782Z,25.30
2022-07-25T18:37:33.592Z,25.10
2022-07-25T18:40:00.394Z,24.90
2022-07-25T18:42:29.968Z,24.80
2022-07-25T18:44:57.158Z,24.70
2022-07-25T18:47:26.391Z,24.60
2022-07-25T18:49:57.705Z,24.50
2022-07-25T18:52:24.801Z,24.50
2022-07-25T18:54:51.484Z,24.40
2022-07-25T18:57:18.298Z,24.30
2022-07-25T18:59:45.152Z,24.30
2022-07-25T19:02:11.965Z,24.20
2022-07-25T19:04:38.689Z,24.10
2022-07-25T19:07:05.417Z,24.00
2022-07-25T19:09:32.134Z,24.00
2022-07-25T19:11:58.977Z,23.90
2022-07-25T19:14:27.308Z,23.90
2022-07-25T19:16:54.648Z,23.90
2022-07-25T19:19:21.412Z,23.70
2022-07-25T19:21:48.716Z,23.70
2022-07-25T19:24:15.463Z,23.70
2022-07-25T19:26:42.592Z,23.60
2022-07-25T19:29:09.975Z,23.70
2022-07-25T19:31:38.160Z,23.60
2022-07-25T19:34:06.611Z,23.70
2022-07-25T19:36:34.045Z,23.70
2022-07-25T19:39:01.254Z,23.70
2022-07-25T19:41:28.396Z,23.80
2022-07-25T19:43:55.290Z,23.70
2022-07-25T19:46:21.947Z,23.70
2022-07-25T19:48:48.856Z,23.70
2022-07-25T19:51:15.672Z,23.70
2022-07-25T19:53:42.336Z,23.70
2022-07-25T19:56:09.210Z,23.70
2022-07-25T19:58:38.876Z,23.60
2022-07-25T20:01:05.782Z,23.60
2022-07-25T20:03:32.558Z,23.60
2022-07-25T20:05:59.188Z,23.50
2022-07-25T20:08:25.825Z,23.50
2022-07-25T20:10:52.766Z,23.50
2022-07-25T20:13:19.785Z,23.50
2022-07-25T20:15:46.534Z,23.40
2022-07-25T20:18:18.906Z,23.40
2022-07-25T20:20:47.039Z,23.40
2022-07-25T20:23:13.777Z,23.30
2022-07-25T20:25:40.474Z,23.20
2022-07-25T20:28:07.182Z,23.20
2022-07-25T20:30:35.101Z,23.20
2022-07-25T20:33:05.319Z,23.20
2022-07-25T20:35:36.534Z,23.20
2022-07-25T20:38:03.493Z,23.20
2022-07-25T20:40:36.328Z,23.00
2022-07-25T20:43:04.502Z,22.50
2022-07-25T20:45:31.257Z,22.40
2022-07-25T20:47:58.044Z,22.40
2022-07-25T20:50:24.927Z,22.30
2022-07-25T20:52:51.870Z,22.30
2022-07-25T20:55:18.596Z,22.30
2022-07-25T20:57:50.212Z,22.40
2022-07-25T21:00:18.033Z,22.40
2022-07-25T21:02:44.968Z,22.50
2022-07-25T21:05:11.758Z,22.70
2022-07-25T21:07:38.371Z,22.70
2022-07-25T21:10:05.394Z,22.70
2022-07-25T21:12:33.063Z,22.60
2022-07-25T21:15:01.208Z,22.60
2022-07-25T21:17:28.194Z,22.60
2022-07-25T21:19:54.994Z,22.50
2022-07-25T21:22:21.862Z,22.40
2022-07-25T21:24:49.616Z,22.40
2022-07-25T21:27:17.048Z,22.40
2022-07-25T21:29:44.335Z,22.30
2022-07-25T21:32:13.613Z,22.30
2022-07-25T21:34:41.508Z,22.30
2022-07-25T21:37:08.525Z,22.20
2022-07-25T21:39:35.365Z,22.10
2022-07-25T21:42:02.211Z,22.00
2022-07-25T21:44:31.487Z,22.00
2022-07-25T21:46:58.199Z,21.90
2022-07-25T21:49:43.645Z,21.90
2022-07-25T21:52:13.911Z,21.80
2022-07-25T21:54:41.892Z,21.60
2022-07-25T21:57:13.072Z,21.60
2022-07-25T21:59:41.925Z,21.50
2022-07-25T22:02:08.674Z,21.50
2022-07-25T22:04:35.532Z,21.50
2022-07-25T22:07:02.766Z,21.30
2022-07-25T22:09:29.619Z,21.20
2022-07-25T22:11:57.578Z,21.20
2022-07-25T22:14:24.507Z,21.20
2022-07-25T22:16:51.238Z,21.20
2022-07-25T22:19:21.898Z,21.20
2022-07-25T22:21:49.470Z,21.20
2022-07-25T22:24:16.465Z,21.20
2022-07-25T22:26:43.226Z,21.20
2022-07-25T22:29:10.548Z,21.10
2022-07-25T22:31:39.193Z,21.10
2022-07-25T22:34:06.750Z,21.00
2022-07-25T22:36:33.598Z,21.00
2022-07-25T22:39:00.265Z,21.10
2022-07-25T22:41:26.960Z,21.10
2022-07-25T22:43:59.043Z,21.00
2022-07-25T22:46:28.270Z,20.90
2022-07-25T22:48:55.314Z,20.80
2022-07-25T22:51:22.349Z,20.80
2022-07-25T22:53:49.250Z,20.80
2022-07-25T22:56:16.831Z,20.70
2022-07-25T22:58:43.531Z,20.60
2022-07-25T23:01:12.633Z,20.50
2022-07-25T23:03:40.771Z,20.50
2022-07-25T23:06:07.662Z,20.50
2022-07-25T23:08:34.413Z,20.50
2022-07-25T23:11:01.164Z,20.50
2022-07-25T23:13:27.825Z,20.60
2022-07-25T23:15:54.534Z,20.60
2022-07-25T23:18:21.302Z,20.50
2022-07-25T23:20:47.950Z,20.50
2022-07-25T23:23:14.667Z,20.60
2022-07-25T23:25:41.394Z,20.60
2022-07-25T23:28:08.103Z,20.50
2022-07-25T23:30:40.052Z,20.40
2022-07-25T23:33:07.920Z,20.40
2022-07-25T23:35:35.453Z,20.50
2022-07-25T23:38:02.191Z,20.60
2022-07-25T23:40:29.280Z,20.60
2022-07-25T23:42:55.970Z,20.60
2022-07-25T23:45:22.976Z,20.60
2022-07-25T23:47:55.101Z,20.60
2022-07-25T23:50:23.096Z,20.60
2022-07-25T23:52:50.320Z,20.60
2022-07-25T23:55:17.329Z,20.50
2022-07-25T23:57:44.101Z,20.40
